sensor_id;sensor_type;location;lat;lon;timestamp;noise_LAeq;noise_LA_min;noise_LA_max;noise_LA01;noise_LA95
64036;Laerm;50280;49.864;8.638;2022-09-12T00:00:39;36.92;33.73;49.67;;
64036;Laerm;50280;49.864;8.638;2022-09-12T00:03:12;36.67;33.21;49.86;;
64036;Laerm;50280;49.864;8.638;2022-09-12T00:05:46;37.47;33.90;49.22;;
64036;Laerm;50280;49.864;8.638;2022-09-12T00:08:19;38.15;35.29;48.31;;
64036;Laerm;50280;49.864;8.638;2022-09-12T00:10:51;39.07;36.82;48.54;;
64036;Laerm;50280;49.864;8.638;2022-09-12T00:13:23;38.94;35.58;49.56;;
64036;Laerm;50280;49.864;8.638;2022-09-12T00:15:56;38.19;34.16;48.28;;
64036;Laerm;50280;49.864;8.638;2022-09-12T00:18:28;36.68;33.50;49.95;;
64036;Laerm;50280;49.864;8.638;2022-09-12T00:21:03;36.35;33.69;48.84;;
64036;Laerm;50280;49.864;8.638;2022-09-12T00:23:36;35.94;32.88;47.79;;
64036;Laerm;50280;49.864;8.638;2022-09-12T00:26:09;37.46;34.74;47.22;;
64036;Laerm;50280;49.864;8.638;2022-09-12T00:28:42;36.82;33.72;48.54;;
64036;Laerm;50280;49.864;8.638;2022-09-12T00:31:18;35.95;33.41;47.94;;
64036;Laerm;50280;49.864;8.638;2022-09-12T00:33:56;36.10;32.72;48.74;;
64036;Laerm;50280;49.864;8.638;2022-09-12T00:36:31;35.68;33.31;48.72;;
64036;Laerm;50280;49.864;8.638;2022-09-12T00:39:04;35.28;32.77;49.06;;
64036;Laerm;50280;49.864;8.638;2022-09-12T00:41:38;35.08;32.29;48.72;;
64036;Laerm;50280;49.864;8.638;2022-09-12T00:44:50;34.83;31.94;47.90;;
64036;Laerm;50280;49.864;8.638;2022-09-12T00:47:27;34.71;31.87;47.23;;
64036;Laerm;50280;49.864;8.638;2022-09-12T00:50:06;36.55;32.87;48.33;;
64036;Laerm;50280;49.864;8.638;2022-09-12T00:52:46;36.99;33.38;50.03;;
64036;Laerm;50280;49.864;8.638;2022-09-12T00:55:26;36.43;33.52;49.94;;
64036;Laerm;50280;49.864;8.638;2022-09-12T00:58:05;35.85;33.19;51.42;;
64036;Laerm;50280;49.864;8.638;2022-09-12T01:00:43;36.95;33.98;47.99;;
64036;Laerm;50280;49.864;8.638;2022-09-12T01:03:21;37.90;34.58;51.07;;
64036;Laerm;50280;49.864;8.638;2022-09-12T01:06:04;37.71;34.99;48.98;;
64036;Laerm;50280;49.864;8.638;2022-09-12T01:08:42;36.64;33.04;47.35;;
64036;Laerm;50280;49.864;8.638;2022-09-12T01:11:19;37.12;33.04;49.19;;
64036;Laerm;50280;49.864;8.638;2022-09-12T01:13:54;36.46;33.12;50.69;;
64036;Laerm;50280;49.864;8.638;2022-09-12T01:16:26;36.71;33.67;46.92;;
64036;Laerm;50280;49.864;8.638;2022-09-12T01:19:18;38.80;35.29;50.34;;
64036;Laerm;50280;49.864;8.638;2022-09-12T01:22:27;38.87;35.62;51.83;;
64036;Laerm;50280;49.864;8.638;2022-09-12T01:25:26;40.49;36.68;53.77;;
64036;Laerm;50280;49.864;8.638;2022-09-12T01:28:25;40.62;37.18;52.14;;
64036;Laerm;50280;49.864;8.638;2022-09-12T01:31:26;41.31;37.71;55.56;;
64036;Laerm;50280;49.864;8.638;2022-09-12T01:34:16;40.64;37.61;54.03;;
64036;Laerm;50280;49.864;8.638;2022-09-12T01:37:04;41.20;38.17;52.25;;
64036;Laerm;50280;49.864;8.638;2022-09-12T01:39:56;40.83;37.47;53.92;;
64036;Laerm;50280;49.864;8.638;2022-09-12T01:42:42;40.73;37.61;53.71;;
64036;Laerm;50280;49.864;8.638;2022-09-12T01:45:29;41.04;38.16;51.85;;
64036;Laerm;50280;49.864;8.638;2022-09-12T01:48:18;41.21;37.88;51.67;;
64036;Laerm;50280;49.864;8.638;2022-09-12T01:51:05;42.49;37.28;53.23;;
64036;Laerm;50280;49.864;8.638;2022-09-12T01:53:47;43.22;39.74;55.57;;
64036;Laerm;50280;49.864;8.638;2022-09-12T01:56:26;42.35;39.02;50.84;;
64036;Laerm;50280;49.864;8.638;2022-09-12T01:59:11;42.42;39.20;52.90;;
64036;Laerm;50280;49.864;8.638;2022-09-12T02:01:54;41.79;38.31;50.31;;
64036;Laerm;50280;49.864;8.638;2022-09-12T02:04:39;41.87;38.87;54.10;;
64036;Laerm;50280;49.864;8.638;2022-09-12T02:07:20;40.92;37.53;51.72;;
64036;Laerm;50280;49.864;8.638;2022-09-12T02:10:06;41.31;37.40;62.18;;
64036;Laerm;50280;49.864;8.638;2022-09-12T02:12:49;42.52;37.61;65.88;;
64036;Laerm;50280;49.864;8.638;2022-09-12T02:15:35;41.53;38.43;50.63;;
64036;Laerm;50280;49.864;8.638;2022-09-12T02:18:14;41.48;38.49;50.23;;
64036;Laerm;50280;49.864;8.638;2022-09-12T02:20:50;40.68;37.94;50.82;;
64036;Laerm;50280;49.864;8.638;2022-09-12T02:23:28;41.36;37.75;48.50;;
64036;Laerm;50280;49.864;8.638;2022-09-12T02:26:11;40.75;37.89;51.00;;
64036;Laerm;50280;49.864;8.638;2022-09-12T02:28:49;40.59;37.11;50.23;;
64036;Laerm;50280;49.864;8.638;2022-09-12T02:31:26;40.64;37.16;49.67;;
64036;Laerm;50280;49.864;8.638;2022-09-12T02:34:28;40.01;37.02;48.00;;
64036;Laerm;50280;49.864;8.638;2022-09-12T02:37:22;40.88;37.79;51.07;;
64036;Laerm;50280;49.864;8.638;2022-09-12T02:40:04;43.18;38.65;54.17;;
64036;Laerm;50280;49.864;8.638;2022-09-12T02:42:37;43.18;38.89;56.15;;
64036;Laerm;50280;49.864;8.638;2022-09-12T02:45:11;42.52;38.89;56.58;;
64036;Laerm;50280;49.864;8.638;2022-09-12T02:47:49;42.99;38.74;56.39;;
64036;Laerm;50280;49.864;8.638;2022-09-12T02:50:27;43.82;37.69;56.82;;
64036;Laerm;50280;49.864;8.638;2022-09-12T02:53:02;40.29;36.19;49.04;;
64036;Laerm;50280;49.864;8.638;2022-09-12T02:55:37;38.51;34.80;49.69;;
64036;Laerm;50280;49.864;8.638;2022-09-12T02:58:18;38.50;35.07;47.76;;
64036;Laerm;50280;49.864;8.638;2022-09-12T03:01:03;39.77;35.91;48.24;;
64036;Laerm;50280;49.864;8.638;2022-09-12T03:04:21;40.18;36.35;52.53;;
64036;Laerm;50280;49.864;8.638;2022-09-12T03:07:15;40.85;37.23;49.66;;
64036;Laerm;50280;49.864;8.638;2022-09-12T03:10:10;42.59;37.75;50.95;;
64036;Laerm;50280;49.864;8.638;2022-09-12T03:13:05;44.80;37.27;53.97;;
64036;Laerm;50280;49.864;8.638;2022-09-12T03:16:05;42.43;38.17;50.03;;
64036;Laerm;50280;49.864;8.638;2022-09-12T03:18:57;42.11;38.75;49.82;;
64036;Laerm;50280;49.864;8.638;2022-09-12T03:21:51;40.80;37.62;47.91;;
64036;Laerm;50280;49.864;8.638;2022-09-12T03:24:38;41.00;37.90;48.30;;
64036;Laerm;50280;49.864;8.638;2022-09-12T03:27:21;41.71;38.52;49.31;;
64036;Laerm;50280;49.864;8.638;2022-09-12T03:30:02;42.69;40.00;50.20;;
64036;Laerm;50280;49.864;8.638;2022-09-12T03:32:44;42.81;40.22;48.12;;
64036;Laerm;50280;49.864;8.638;2022-09-12T03:35:22;41.91;39.00;49.23;;
64036;Laerm;50280;49.864;8.638;2022-09-12T03:37:56;42.98;39.70;49.82;;
64036;Laerm;50280;49.864;8.638;2022-09-12T03:40:28;44.51;40.54;51.16;;
64036;Laerm;50280;49.864;8.638;2022-09-12T03:43:02;42.64;39.55;48.49;;
64036;Laerm;50280;49.864;8.638;2022-09-12T03:45:36;42.79;39.84;49.04;;
64036;Laerm;50280;49.864;8.638;2022-09-12T03:48:09;42.25;39.50;49.06;;
64036;Laerm;50280;49.864;8.638;2022-09-12T03:50:42;42.81;39.38;50.28;;
64036;Laerm;50280;49.864;8.638;2022-09-12T03:53:14;42.94;40.09;48.36;;
64036;Laerm;50280;49.864;8.638;2022-09-12T03:55:46;42.58;39.83;48.44;;
64036;Laerm;50280;49.864;8.638;2022-09-12T03:58:20;42.03;38.98;49.78;;
64036;Laerm;50280;49.864;8.638;2022-09-12T04:00:53;42.82;40.08;49.73;;
64036;Laerm;50280;49.864;8.638;2022-09-12T04:03:25;42.96;40.09;50.01;;
64036;Laerm;50280;49.864;8.638;2022-09-12T04:05:57;43.55;40.22;53.40;;
64036;Laerm;50280;49.864;8.638;2022-09-12T04:08:30;41.94;38.73;51.17;;
64036;Laerm;50280;49.864;8.638;2022-09-12T04:11:04;43.38;40.39;55.74;;
64036;Laerm;50280;49.864;8.638;2022-09-12T04:13:41;43.31;40.18;51.32;;
64036;Laerm;50280;49.864;8.638;2022-09-12T04:16:15;44.72;40.20;59.68;;
64036;Laerm;50280;49.864;8.638;2022-09-12T04:18:48;44.17;40.21;55.63;;
64036;Laerm;50280;49.864;8.638;2022-09-12T04:23:53;44.46;40.75;55.69;;
64036;Laerm;50280;49.864;8.638;2022-09-12T04:26:25;46.77;40.75;64.95;;
64036;Laerm;50280;49.864;8.638;2022-09-12T04:28:59;48.21;40.43;66.41;;
64036;Laerm;50280;49.864;8.638;2022-09-12T04:31:31;42.99;39.82;51.11;;
64036;Laerm;50280;49.864;8.638;2022-09-12T04:34:04;44.87;40.31;57.83;;
64036;Laerm;50280;49.864;8.638;2022-09-12T04:36:36;44.37;41.06;59.08;;
64036;Laerm;50280;49.864;8.638;2022-09-12T04:39:09;45.68;40.29;60.63;;
64036;Laerm;50280;49.864;8.638;2022-09-12T04:41:42;48.26;40.40;62.91;;
64036;Laerm;50280;49.864;8.638;2022-09-12T04:44:16;46.19;40.74;55.58;;
64036;Laerm;50280;49.864;8.638;2022-09-12T04:46:49;42.74;39.70;53.87;;
64036;Laerm;50280;49.864;8.638;2022-09-12T04:49:21;44.71;40.49;61.61;;
64036;Laerm;50280;49.864;8.638;2022-09-12T04:51:54;44.31;40.56;54.59;;
64036;Laerm;50280;49.864;8.638;2022-09-12T04:54:26;44.77;39.47;62.08;;
64036;Laerm;50280;49.864;8.638;2022-09-12T04:56:59;44.17;40.54;52.17;;
64036;Laerm;50280;49.864;8.638;2022-09-12T04:59:32;44.52;40.00;57.48;;
64036;Laerm;50280;49.864;8.638;2022-09-12T05:02:05;45.45;41.01;59.30;;
64036;Laerm;50280;49.864;8.638;2022-09-12T05:04:37;49.51;41.98;68.58;;
64036;Laerm;50280;49.864;8.638;2022-09-12T05:07:09;44.71;41.32;58.73;;
64036;Laerm;50280;49.864;8.638;2022-09-12T05:09:42;45.96;41.45;53.56;;
64036;Laerm;50280;49.864;8.638;2022-09-12T05:12:14;46.25;41.45;55.16;;
64036;Laerm;50280;49.864;8.638;2022-09-12T05:14:48;46.40;41.12;58.36;;
64036;Laerm;50280;49.864;8.638;2022-09-12T05:17:20;45.24;41.16;61.45;;
64036;Laerm;50280;49.864;8.638;2022-09-12T05:19:53;45.83;42.02;59.60;;
64036;Laerm;50280;49.864;8.638;2022-09-12T05:22:25;47.84;42.55;60.34;;
64036;Laerm;50280;49.864;8.638;2022-09-12T05:24:57;47.04;42.32;66.05;;
64036;Laerm;50280;49.864;8.638;2022-09-12T05:27:30;50.62;42.18;67.91;;
64036;Laerm;50280;49.864;8.638;2022-09-12T05:30:05;46.65;41.71;59.94;;
64036;Laerm;50280;49.864;8.638;2022-09-12T05:32:38;47.54;43.12;56.47;;
64036;Laerm;50280;49.864;8.638;2022-09-12T05:35:11;46.85;42.23;60.74;;
64036;Laerm;50280;49.864;8.638;2022-09-12T05:37:43;47.23;42.27;62.64;;
64036;Laerm;50280;49.864;8.638;2022-09-12T05:40:15;46.33;42.63;56.89;;
64036;Laerm;50280;49.864;8.638;2022-09-12T05:42:48;45.76;41.71;57.55;;
64036;Laerm;50280;49.864;8.638;2022-09-12T05:45:21;46.18;41.42;59.52;;
64036;Laerm;50280;49.864;8.638;2022-09-12T05:47:54;48.03;42.70;61.31;;
64036;Laerm;50280;49.864;8.638;2022-09-12T05:50:26;46.43;41.74;58.43;;
64036;Laerm;50280;49.864;8.638;2022-09-12T05:52:59;45.39;41.43;56.13;;
64036;Laerm;50280;49.864;8.638;2022-09-12T05:55:31;51.76;41.36;68.00;;
64036;Laerm;50280;49.864;8.638;2022-09-12T05:58:03;50.79;41.47;66.80;;
64036;Laerm;50280;49.864;8.638;2022-09-12T06:00:37;44.33;40.86;57.52;;
64036;Laerm;50280;49.864;8.638;2022-09-12T06:03:09;46.86;41.10;61.71;;
64036;Laerm;50280;49.864;8.638;2022-09-12T06:05:42;48.99;41.87;61.87;;
64036;Laerm;50280;49.864;8.638;2022-09-12T06:08:14;46.51;41.50;56.20;;
64036;Laerm;50280;49.864;8.638;2022-09-12T06:10:46;43.39;40.20;50.15;;
64036;Laerm;50280;49.864;8.638;2022-09-12T06:13:19;44.76;40.06;67.76;;
64036;Laerm;50280;49.864;8.638;2022-09-12T06:15:52;44.16;39.88;56.31;;
64036;Laerm;50280;49.864;8.638;2022-09-12T06:18:25;44.70;39.66;62.91;;
64036;Laerm;50280;49.864;8.638;2022-09-12T06:21:02;45.97;40.92;64.30;;
64036;Laerm;50280;49.864;8.638;2022-09-12T06:23:36;46.62;39.63;72.32;;
64036;Laerm;50280;49.864;8.638;2022-09-12T06:26:10;49.20;40.35;68.77;;
64036;Laerm;50280;49.864;8.638;2022-09-12T06:28:44;46.70;39.79;65.88;;
64036;Laerm;50280;49.864;8.638;2022-09-12T06:31:20;45.75;38.98;65.57;;
64036;Laerm;50280;49.864;8.638;2022-09-12T06:33:56;43.38;38.45;59.45;;
64036;Laerm;50280;49.864;8.638;2022-09-12T06:36:33;42.23;38.89;52.86;;
64036;Laerm;50280;49.864;8.638;2022-09-12T06:39:11;43.55;38.48;59.65;;
64036;Laerm;50280;49.864;8.638;2022-09-12T06:41:46;43.48;37.67;51.60;;
64036;Laerm;50280;49.864;8.638;2022-09-12T06:44:21;43.99;36.77;55.70;;
64036;Laerm;50280;49.864;8.638;2022-09-12T06:46:55;41.66;36.76;61.89;;
64036;Laerm;50280;49.864;8.638;2022-09-12T06:49:27;41.09;36.95;50.18;;
64036;Laerm;50280;49.864;8.638;2022-09-12T06:52:00;42.97;37.80;57.25;;
64036;Laerm;50280;49.864;8.638;2022-09-12T06:54:33;45.53;37.12;70.57;;
64036;Laerm;50280;49.864;8.638;2022-09-12T06:57:05;46.38;36.72;69.07;;
64036;Laerm;50280;49.864;8.638;2022-09-12T06:59:37;46.66;37.96;67.06;;
64036;Laerm;50280;49.864;8.638;2022-09-12T07:02:11;44.33;38.53;64.98;;
64036;Laerm;50280;49.864;8.638;2022-09-12T07:04:44;45.18;37.14;70.00;;
64036;Laerm;50280;49.864;8.638;2022-09-12T07:07:16;45.68;36.89;68.10;;
64036;Laerm;50280;49.864;8.638;2022-09-12T07:09:49;44.61;37.53;62.46;;
64036;Laerm;50280;49.864;8.638;2022-09-12T07:12:21;44.14;35.99;60.87;;
64036;Laerm;50280;49.864;8.638;2022-09-12T07:14:53;44.84;36.45;56.91;;
64036;Laerm;50280;49.864;8.638;2022-09-12T07:17:28;45.49;37.25;58.72;;
64036;Laerm;50280;49.864;8.638;2022-09-12T07:20:01;45.13;37.62;59.11;;
64036;Laerm;50280;49.864;8.638;2022-09-12T07:22:33;42.45;36.13;62.50;;
64036;Laerm;50280;49.864;8.638;2022-09-12T07:25:06;42.98;36.59;60.12;;
64036;Laerm;50280;49.864;8.638;2022-09-12T07:27:39;45.60;36.80;58.49;;
64036;Laerm;50280;49.864;8.638;2022-09-12T07:30:11;42.47;36.24;59.55;;
64036;Laerm;50280;49.864;8.638;2022-09-12T07:32:45;49.86;35.08;64.00;;
64036;Laerm;50280;49.864;8.638;2022-09-12T07:35:17;47.61;36.53;59.16;;
64036;Laerm;50280;49.864;8.638;2022-09-12T07:37:50;43.33;35.43;63.69;;
64036;Laerm;50280;49.864;8.638;2022-09-12T07:40:22;40.89;35.02;56.43;;
64036;Laerm;50280;49.864;8.638;2022-09-12T07:42:54;41.54;34.74;63.84;;
64036;Laerm;50280;49.864;8.638;2022-09-12T07:45:27;44.09;36.23;64.07;;
64036;Laerm;50280;49.864;8.638;2022-09-12T07:48:01;51.59;37.16;65.93;;
64036;Laerm;50280;49.864;8.638;2022-09-12T07:50:35;42.02;34.70;59.48;;
64036;Laerm;50280;49.864;8.638;2022-09-12T07:53:07;42.85;36.21;55.27;;
64036;Laerm;50280;49.864;8.638;2022-09-12T07:55:40;55.83;34.75;75.39;;
64036;Laerm;50280;49.864;8.638;2022-09-12T07:58:12;42.18;36.34;55.57;;
64036;Laerm;50280;49.864;8.638;2022-09-12T08:00:44;43.24;36.35;54.09;;
64036;Laerm;50280;49.864;8.638;2022-09-12T08:03:18;44.28;34.40;59.92;;
64036;Laerm;50280;49.864;8.638;2022-09-12T08:05:50;42.82;33.93;57.76;;
64036;Laerm;50280;49.864;8.638;2022-09-12T08:08:23;43.20;35.39;55.83;;
64036;Laerm;50280;49.864;8.638;2022-09-12T08:10:56;40.67;32.99;62.82;;
64036;Laerm;50280;49.864;8.638;2022-09-12T08:13:29;41.05;34.27;57.94;;
64036;Laerm;50280;49.864;8.638;2022-09-12T08:16:04;44.44;33.63;72.28;;
64036;Laerm;50280;49.864;8.638;2022-09-12T08:18:40;40.56;32.65;56.98;;
64036;Laerm;50280;49.864;8.638;2022-09-12T08:21:16;40.92;33.80;54.84;;
64036;Laerm;50280;49.864;8.638;2022-09-12T08:23:52;41.43;33.31;68.27;;
64036;Laerm;50280;49.864;8.638;2022-09-12T08:26:26;41.41;33.81;57.14;;
64036;Laerm;50280;49.864;8.638;2022-09-12T08:28:59;40.30;33.44;56.48;;
64036;Laerm;50280;49.864;8.638;2022-09-12T08:31:32;42.94;35.59;67.23;;
64036;Laerm;50280;49.864;8.638;2022-09-12T08:34:06;41.47;34.53;59.05;;
64036;Laerm;50280;49.864;8.638;2022-09-12T08:36:39;44.39;34.28;70.96;;
64036;Laerm;50280;49.864;8.638;2022-09-12T08:39:12;41.56;34.41;55.47;;
64036;Laerm;50280;49.864;8.638;2022-09-12T08:41:47;44.52;35.28;62.36;;
64036;Laerm;50280;49.864;8.638;2022-09-12T08:45:01;41.91;33.56;54.55;;
64036;Laerm;50280;49.864;8.638;2022-09-12T08:47:45;41.38;34.42;54.80;;
64036;Laerm;50280;49.864;8.638;2022-09-12T08:50:21;40.79;33.87;59.38;;
64036;Laerm;50280;49.864;8.638;2022-09-12T08:52:57;39.49;33.50;55.89;;
64036;Laerm;50280;49.864;8.638;2022-09-12T08:55:36;39.75;33.62;56.42;;
64036;Laerm;50280;49.864;8.638;2022-09-12T08:58:16;62.85;33.92;78.82;;
64036;Laerm;50280;49.864;8.638;2022-09-12T09:00:57;39.25;33.61;50.79;;
64036;Laerm;50280;49.864;8.638;2022-09-12T09:07:20;43.58;35.60;59.46;;
64036;Laerm;50280;49.864;8.638;2022-09-12T09:10:17;41.48;34.68;56.23;;
64036;Laerm;50280;49.864;8.638;2022-09-12T09:13:14;42.95;34.48;64.68;;
64036;Laerm;50280;49.864;8.638;2022-09-12T09:16:08;48.04;34.51;66.61;;
64036;Laerm;50280;49.864;8.638;2022-09-12T09:18:51;37.70;33.07;55.24;;
64036;Laerm;50280;49.864;8.638;2022-09-12T09:21:34;50.94;33.94;63.40;;
64036;Laerm;50280;49.864;8.638;2022-09-12T09:24:18;40.38;34.73;53.73;;
64036;Laerm;50280;49.864;8.638;2022-09-12T09:27:00;40.79;34.96;56.75;;
64036;Laerm;50280;49.864;8.638;2022-09-12T09:29:42;42.33;35.20;60.23;;
64036;Laerm;50280;49.864;8.638;2022-09-12T09:32:26;42.71;36.67;61.11;;
64036;Laerm;50280;49.864;8.638;2022-09-12T09:35:15;43.25;35.48;56.87;;
64036;Laerm;50280;49.864;8.638;2022-09-12T09:38:00;41.49;35.27;54.90;;
64036;Laerm;50280;49.864;8.638;2022-09-12T09:40:56;40.87;34.57;61.58;;
64036;Laerm;50280;49.864;8.638;2022-09-12T09:43:37;39.45;33.98;56.38;;
64036;Laerm;50280;49.864;8.638;2022-09-12T09:46:10;40.68;34.77;58.15;;
64036;Laerm;50280;49.864;8.638;2022-09-12T09:48:46;44.19;35.00;55.73;;
64036;Laerm;50280;49.864;8.638;2022-09-12T09:51:27;44.05;35.41;58.65;;
64036;Laerm;50280;49.864;8.638;2022-09-12T09:54:16;42.48;34.37;58.41;;
64036;Laerm;50280;49.864;8.638;2022-09-12T09:56:54;39.02;33.54;53.32;;
64036;Laerm;50280;49.864;8.638;2022-09-12T09:59:29;41.43;34.61;53.77;;
64036;Laerm;50280;49.864;8.638;2022-09-12T10:02:20;42.52;35.19;55.88;;
64036;Laerm;50280;49.864;8.638;2022-09-12T10:04:56;42.57;35.93;54.56;;
64036;Laerm;50280;49.864;8.638;2022-09-12T10:07:29;40.50;35.53;55.29;;
64036;Laerm;50280;49.864;8.638;2022-09-12T10:10:13;40.73;35.48;55.77;;
64036;Laerm;50280;49.864;8.638;2022-09-12T10:12:49;42.05;34.11;65.08;;
64036;Laerm;50280;49.864;8.638;2022-09-12T10:15:24;41.82;35.58;60.07;;
64036;Laerm;50280;49.864;8.638;2022-09-12T10:17:57;45.97;32.87;71.29;;
64036;Laerm;50280;49.864;8.638;2022-09-12T10:20:34;42.95;33.65;67.35;;
64036;Laerm;50280;49.864;8.638;2022-09-12T10:23:29;40.78;35.53;55.10;;
64036;Laerm;50280;49.864;8.638;2022-09-12T10:26:10;46.32;34.51;73.52;;
64036;Laerm;50280;49.864;8.638;2022-09-12T10:28:50;44.64;34.41;55.81;;
64036;Laerm;50280;49.864;8.638;2022-09-12T10:31:27;38.54;34.18;51.17;;
64036;Laerm;50280;49.864;8.638;2022-09-12T10:34:22;41.67;33.16;57.90;;
64036;Laerm;50280;49.864;8.638;2022-09-12T10:37:03;41.55;36.35;54.81;;
64036;Laerm;50280;49.864;8.638;2022-09-12T10:39:38;40.15;35.59;56.76;;
64036;Laerm;50280;49.864;8.638;2022-09-12T10:42:13;42.69;35.58;56.62;;
64036;Laerm;50280;49.864;8.638;2022-09-12T10:44:52;43.79;36.67;58.27;;
64036;Laerm;50280;49.864;8.638;2022-09-12T10:47:29;40.56;35.28;57.17;;
64036;Laerm;50280;49.864;8.638;2022-09-12T10:50:22;42.97;36.65;55.83;;
64036;Laerm;50280;49.864;8.638;2022-09-12T10:53:15;47.10;37.22;62.58;;
64036;Laerm;50280;49.864;8.638;2022-09-12T10:56:06;43.77;36.00;57.23;;
64036;Laerm;50280;49.864;8.638;2022-09-12T10:59:08;42.65;34.43;56.90;;
64036;Laerm;50280;49.864;8.638;2022-09-12T11:02:00;44.40;36.21;63.31;;
64036;Laerm;50280;49.864;8.638;2022-09-12T11:04:59;43.12;35.27;59.40;;
64036;Laerm;50280;49.864;8.638;2022-09-12T11:07:45;42.27;36.23;51.34;;
64036;Laerm;50280;49.864;8.638;2022-09-12T11:10:35;41.52;35.73;51.39;;
64036;Laerm;50280;49.864;8.638;2022-09-12T11:13:42;41.85;35.50;60.04;;
64036;Laerm;50280;49.864;8.638;2022-09-12T11:16:31;42.90;35.06;58.10;;
64036;Laerm;50280;49.864;8.638;2022-09-12T11:19:46;42.31;34.83;56.60;;
64036;Laerm;50280;49.864;8.638;2022-09-12T11:23:13;41.56;35.04;52.44;;
64036;Laerm;50280;49.864;8.638;2022-09-12T11:26:05;40.00;34.14;64.12;;
64036;Laerm;50280;49.864;8.638;2022-09-12T11:29:02;39.59;34.19;55.26;;
64036;Laerm;50280;49.864;8.638;2022-09-12T11:32:05;40.61;33.45;56.02;;
64036;Laerm;50280;49.864;8.638;2022-09-12T11:34:58;43.49;34.72;58.25;;
64036;Laerm;50280;49.864;8.638;2022-09-12T11:38:19;41.96;34.87;51.81;;
64036;Laerm;50280;49.864;8.638;2022-09-12T11:41:17;42.91;35.26;52.79;;
64036;Laerm;50280;49.864;8.638;2022-09-12T11:44:03;43.60;35.08;67.30;;
64036;Laerm;50280;49.864;8.638;2022-09-12T11:46:46;47.45;36.79;72.46;;
64036;Laerm;50280;49.864;8.638;2022-09-12T11:49:27;39.80;33.75;62.06;;
64036;Laerm;50280;49.864;8.638;2022-09-12T11:52:13;42.59;35.00;63.54;;
64036;Laerm;50280;49.864;8.638;2022-09-12T11:54:51;42.33;34.05;61.91;;
64036;Laerm;50280;49.864;8.638;2022-09-12T11:57:40;39.27;32.63;53.40;;
64036;Laerm;50280;49.864;8.638;2022-09-12T12:00:19;39.83;33.03;51.09;;
64036;Laerm;50280;49.864;8.638;2022-09-12T12:03:03;39.31;33.50;56.04;;
64036;Laerm;50280;49.864;8.638;2022-09-12T12:05:52;38.78;34.05;60.38;;
64036;Laerm;50280;49.864;8.638;2022-09-12T12:08:31;38.03;33.78;51.32;;
64036;Laerm;50280;49.864;8.638;2022-09-12T12:11:12;38.66;33.85;55.94;;
64036;Laerm;50280;49.864;8.638;2022-09-12T12:13:51;39.45;34.76;51.47;;
64036;Laerm;50280;49.864;8.638;2022-09-12T12:16:32;38.32;33.55;49.58;;
64036;Laerm;50280;49.864;8.638;2022-09-12T12:19:30;42.37;35.92;64.72;;
64036;Laerm;50280;49.864;8.638;2022-09-12T12:22:11;39.23;33.73;50.54;;
64036;Laerm;50280;49.864;8.638;2022-09-12T12:25:06;40.90;34.74;51.44;;
64036;Laerm;50280;49.864;8.638;2022-09-12T12:27:56;40.75;34.08;56.79;;
64036;Laerm;50280;49.864;8.638;2022-09-12T12:31:00;42.61;35.19;59.31;;
64036;Laerm;50280;49.864;8.638;2022-09-12T12:34:25;41.84;36.56;53.11;;
64036;Laerm;50280;49.864;8.638;2022-09-12T12:37:48;41.57;36.19;58.92;;
64036;Laerm;50280;49.864;8.638;2022-09-12T12:40:28;43.07;36.31;56.12;;
64036;Laerm;50280;49.864;8.638;2022-09-12T12:43:29;40.79;35.43;56.45;;
64036;Laerm;50280;49.864;8.638;2022-09-12T12:46:13;42.06;35.67;53.33;;
64036;Laerm;50280;49.864;8.638;2022-09-12T12:48:57;41.62;36.89;54.38;;
64036;Laerm;50280;49.864;8.638;2022-09-12T12:51:59;44.44;35.87;65.24;;
64036;Laerm;50280;49.864;8.638;2022-09-12T12:54:52;41.99;34.57;55.16;;
64036;Laerm;50280;49.864;8.638;2022-09-12T12:57:45;40.77;35.98;50.64;;
64036;Laerm;50280;49.864;8.638;2022-09-12T13:00:32;48.05;36.24;76.11;;
64036;Laerm;50280;49.864;8.638;2022-09-12T13:03:18;39.90;34.96;50.60;;
64036;Laerm;50280;49.864;8.638;2022-09-12T13:06:04;40.07;34.96;49.71;;
64036;Laerm;50280;49.864;8.638;2022-09-12T13:08:54;41.47;34.10;53.44;;
64036;Laerm;50280;49.864;8.638;2022-09-12T13:11:34;38.56;33.63;49.03;;
64036;Laerm;50280;49.864;8.638;2022-09-12T13:14:35;46.46;32.59;59.43;;
64036;Laerm;50280;49.864;8.638;2022-09-12T13:17:37;44.69;33.66;62.54;;
64036;Laerm;50280;49.864;8.638;2022-09-12T13:20:21;48.24;35.29;73.60;;
64036;Laerm;50280;49.864;8.638;2022-09-12T13:22:57;42.65;35.05;63.39;;
64036;Laerm;50280;49.864;8.638;2022-09-12T13:25:31;42.51;35.76;63.21;;
64036;Laerm;50280;49.864;8.638;2022-09-12T13:28:16;42.96;35.77;67.10;;
64036;Laerm;50280;49.864;8.638;2022-09-12T13:30:59;46.51;34.19;67.66;;
64036;Laerm;50280;49.864;8.638;2022-09-12T13:33:41;41.27;34.31;59.78;;
64036;Laerm;50280;49.864;8.638;2022-09-12T13:36:46;42.91;36.92;59.39;;
64036;Laerm;50280;49.864;8.638;2022-09-12T13:39:36;41.16;35.07;63.74;;
64036;Laerm;50280;49.864;8.638;2022-09-12T13:42:40;45.20;35.68;64.45;;
64036;Laerm;50280;49.864;8.638;2022-09-12T13:45:20;44.97;35.55;67.96;;
64036;Laerm;50280;49.864;8.638;2022-09-12T13:47:57;40.91;35.02;62.87;;
64036;Laerm;50280;49.864;8.638;2022-09-12T13:50:38;42.92;35.27;62.99;;
64036;Laerm;50280;49.864;8.638;2022-09-12T13:53:17;42.25;35.40;61.88;;
64036;Laerm;50280;49.864;8.638;2022-09-12T13:55:56;44.22;34.60;70.01;;
64036;Laerm;50280;49.864;8.638;2022-09-12T13:58:31;47.06;34.86;75.98;;
64036;Laerm;50280;49.864;8.638;2022-09-12T14:01:12;44.00;34.91;75.67;;
64036;Laerm;50280;49.864;8.638;2022-09-12T14:03:51;45.21;35.13;71.90;;
64036;Laerm;50280;49.864;8.638;2022-09-12T14:06:25;40.13;34.12;54.23;;
64036;Laerm;50280;49.864;8.638;2022-09-12T14:08:58;40.21;34.22;59.01;;
64036;Laerm;50280;49.864;8.638;2022-09-12T14:11:31;41.55;35.37;49.86;;
64036;Laerm;50280;49.864;8.638;2022-09-12T14:14:17;39.55;35.38;61.77;;
64036;Laerm;50280;49.864;8.638;2022-09-12T14:17:14;42.61;35.06;66.34;;
64036;Laerm;50280;49.864;8.638;2022-09-12T14:19:48;40.76;36.68;49.41;;
64036;Laerm;50280;49.864;8.638;2022-09-12T14:22:21;41.45;36.73;58.88;;
64036;Laerm;50280;49.864;8.638;2022-09-12T14:24:55;42.08;38.22;57.37;;
64036;Laerm;50280;49.864;8.638;2022-09-12T14:27:42;42.20;37.55;51.15;;
64036;Laerm;50280;49.864;8.638;2022-09-12T14:30:24;43.50;37.91;51.28;;
64036;Laerm;50280;49.864;8.638;2022-09-12T14:33:18;43.10;37.01;62.72;;
64036;Laerm;50280;49.864;8.638;2022-09-12T14:36:09;42.07;37.46;52.67;;
64036;Laerm;50280;49.864;8.638;2022-09-12T14:38:51;42.81;36.11;55.81;;
64036;Laerm;50280;49.864;8.638;2022-09-12T14:41:31;42.49;36.43;61.18;;
64036;Laerm;50280;49.864;8.638;2022-09-12T14:44:16;43.81;37.30;56.04;;
64036;Laerm;50280;49.864;8.638;2022-09-12T14:46:50;41.61;35.12;58.47;;
64036;Laerm;50280;49.864;8.638;2022-09-12T14:49:30;61.80;35.85;86.11;;
64036;Laerm;50280;49.864;8.638;2022-09-12T14:52:22;41.65;34.68;55.75;;
64036;Laerm;50280;49.864;8.638;2022-09-12T14:55:00;41.26;35.83;59.80;;
64036;Laerm;50280;49.864;8.638;2022-09-12T14:57:38;42.49;37.11;54.25;;
64036;Laerm;50280;49.864;8.638;2022-09-12T15:00:18;42.16;36.31;58.44;;
64036;Laerm;50280;49.864;8.638;2022-09-12T15:02:53;43.63;37.25;58.27;;
64036;Laerm;50280;49.864;8.638;2022-09-12T15:05:26;41.42;34.87;64.00;;